Terminal Aerodrome Forecast
Issued by NWS

Home | Current Version | Previous Version | Text Only | Print | Product List | Glossary On
Versions: 1 2 3 4 5 6 7 8 9 10 11 12 13 14 15 16 17 18 19 20 21 22 23 24 25 26 27 28 29 30 31 32 33 34 35 36 37
000
FTUS41 KBOX 280847 AAA
TAFACK
TAF AMD
KACK 280847Z 2809/2906 01009KT 6SM -SHRA BR OVC012
     FM281400 02012KT 2SM -SHRA BR OVC008
     FM282300 01011G23KT 3SM -SHSN OVC015
     FM290200 01011G21KT P6SM OVC015=

USA.gov is the U.S. government's official web portal to all federal, state and local government web resources and services.